»·PEaware :: NKS1653 KBUR-KLAS

NKS1653 :: KBUR-KLAS

FLIGHT INFORMATION

Flight Status: Arrived
Operator:
Spirit Airlines
More flights by this operator :: More flights under this callsign
Pilot: Luc P. (3613)
Aircraft: AIRBUS A321
(A321)
More flights by this aircraft type
Origin: KBUR Bob Hope-Burbank
United States
Destination: KLAS McCarran Intl
United States
More flights between these airports :: More routes between these airports
Route: SLAPP2 MISEN KEPEC6
File this flight plan on PilotEdge
Remarks:
Altitude:
(Current/Filed)
23,000ft
Speed:
(Current/Filed)
404kts
Departed: 03-Jan-21 05:13 PM
Arrived: 03-Jan-21 06:00 PM
Distance/Time
Traveled:
194nm/0:47
Distance/Time
To Go:
Arrived

Flight Plot

Page will automatically refresh every two minutes.

Flight plan parsing failed; only flown route is shown


Map Options




Map Legend


Flown Route
Filed Route
Departure Airport
Arrival Airport
Navaid (VOR, NDB)
Fix

Horizontal Profiles

Position Reports

Time Latitude Longitude Heading Altitude Ground
Speed
03-Jan-21 16:50 34.196852 -118.351053 180 698ft 0kts
03-Jan-21 16:51 34.196852 -118.351053 180 698ft 0kts
03-Jan-21 16:52 34.196852 -118.351053 180 698ft 0kts
03-Jan-21 16:53 34.196852 -118.351053 180 698ft 0kts
03-Jan-21 16:54 34.196852 -118.351053 180 698ft 0kts
03-Jan-21 16:55 34.196852 -118.351053 180 698ft 0kts
03-Jan-21 16:56 34.196852 -118.351053 180 698ft 0kts
03-Jan-21 16:57 34.196852 -118.351053 180 698ft 0kts
03-Jan-21 16:59 34.196853 -118.351053 180 698ft 0kts
03-Jan-21 17:00 34.196852 -118.351051 185 698ft 0kts
03-Jan-21 17:01 34.197173 -118.350771 271 698ft 0kts
03-Jan-21 17:02 34.197173 -118.350772 271 698ft 0kts
03-Jan-21 17:03 34.197173 -118.350772 271 698ft 0kts
03-Jan-21 17:04 34.197178 -118.351332 270 700ft 3kts
03-Jan-21 17:05 34.198750 -118.352541 290 705ft 9kts
03-Jan-21 17:06 34.198811 -118.354731 271 714ft 7kts
03-Jan-21 17:07 34.201813 -118.356190 347 731ft 13kts
03-Jan-21 17:08 34.205899 -118.357319 346 752ft 15kts
03-Jan-21 17:09 34.209990 -118.358448 347 769ft 13kts
03-Jan-21 17:10 34.211451 -118.358946 323 775ft 0kts
03-Jan-21 17:10 34.211451 -118.358946 323 775ft 0kts
03-Jan-21 17:11 34.211651 -118.360161 201 779ft 9kts
03-Jan-21 17:13 34.178578 -118.354713 204 1722ft 149kts
03-Jan-21 17:14 34.139072 -118.396224 223 3066ft 217kts
03-Jan-21 17:15 34.151924 -118.463975 341 5220ft 269kts
03-Jan-21 17:15 34.213402 -118.476003 352 7946ft 274kts
03-Jan-21 17:17 34.302431 -118.488997 352 9992ft 276kts
03-Jan-21 17:18 34.372455 -118.465319 57 10328ft 307kts
03-Jan-21 17:18 34.418116 -118.390849 44 11413ft 356kts
03-Jan-21 17:19 34.490770 -118.302860 35 13689ft 376kts
03-Jan-21 17:20 34.573198 -118.221815 36 15916ft 389kts
03-Jan-21 17:21 34.655580 -118.133115 52 18066ft 409kts
03-Jan-21 17:22 34.687301 -117.997346 78 20009ft 431kts
03-Jan-21 17:23 34.698880 -117.849654 84 21825ft 445kts
03-Jan-21 17:24 34.706847 -117.698452 86 23197ft 453kts
03-Jan-21 17:25 34.712602 -117.544313 85 23210ft 456kts
03-Jan-21 17:26 34.743147 -117.395901 69 23212ft 454kts
03-Jan-21 17:27 34.782366 -117.249872 70 23214ft 455kts
03-Jan-21 17:28 34.821044 -117.103350 70 23216ft 455kts
03-Jan-21 17:29 34.859544 -116.956736 70 23226ft 454kts
03-Jan-21 17:30 34.897856 -116.810130 70 23237ft 455kts
03-Jan-21 17:31 34.950155 -116.671309 52 23240ft 450kts
03-Jan-21 17:32 35.021800 -116.546114 52 23239ft 450kts
03-Jan-21 17:33 35.092929 -116.420728 49 23238ft 450kts
03-Jan-21 17:34 35.176234 -116.310382 42 22540ft 434kts
03-Jan-21 17:35 35.259788 -116.205861 42 21545ft 429kts
03-Jan-21 17:36 35.342688 -116.101517 42 19887ft 418kts
03-Jan-21 17:37 35.422034 -116.001341 41 17927ft 402kts
03-Jan-21 17:38 35.498356 -115.904747 42 15973ft 388kts
03-Jan-21 17:39 35.571962 -115.811311 42 14031ft 375kts
03-Jan-21 17:40 35.639961 -115.724649 42 13215ft 326kts
03-Jan-21 17:41 35.698227 -115.650292 41 13000ft 285kts
03-Jan-21 17:42 35.753624 -115.582588 25 12989ft 274kts
03-Jan-21 17:43 35.826109 -115.571240 358 13000ft 264kts
03-Jan-21 17:44 35.899680 -115.567334 359 13002ft 264kts
03-Jan-21 17:45 35.971338 -115.549966 40 12995ft 281kts
03-Jan-21 17:46 36.004717 -115.457571 65 11710ft 290kts
03-Jan-21 17:47 36.029744 -115.364457 85 10999ft 273kts
03-Jan-21 17:48 36.022924 -115.267122 93 9832ft 271kts
03-Jan-21 17:49 36.016240 -115.174614 93 8761ft 254kts
03-Jan-21 17:50 36.010412 -115.088983 93 8059ft 236kts
03-Jan-21 17:51 36.005605 -115.008998 92 8001ft 230kts
03-Jan-21 17:52 36.000883 -114.930107 92 7923ft 227kts
03-Jan-21 17:53 36.015044 -114.860440 20 6585ft 221kts
03-Jan-21 17:54 36.065960 -114.876450 299 5224ft 198kts
03-Jan-21 17:55 36.073799 -114.941125 271 4949ft 177kts
03-Jan-21 17:56 36.073813 -114.998600 270 4069ft 160kts
03-Jan-21 17:57 36.073685 -115.053563 270 3333ft 153kts
03-Jan-21 17:58 36.073645 -115.109092 269 2372ft 156kts
03-Jan-21 17:59 36.073639 -115.150729 270 2123ft 37kts
03-Jan-21 18:00 36.074783 -115.155281 299 2137ft 5kts
03-Jan-21 18:01 36.076823 -115.157888 317 2143ft 13kts
03-Jan-21 18:02 36.078035 -115.154668 90 2130ft 19kts
03-Jan-21 18:03 36.080860 -115.154534 335 2124ft 15kts
03-Jan-21 18:04 36.083771 -115.154401 65 2120ft 5kts
03-Jan-21 18:05 36.084860 -115.153965 336 2117ft 0kts
03-Jan-21 18:06 36.084860 -115.153965 336 2117ft 0kts
03-Jan-21 18:07 36.084860 -115.153965 336 2117ft 0kts
03-Jan-21 18:08 36.084860 -115.153965 336 2117ft 0kts

Navigation Log

Ident Type
Flight plan parsing failed, navigation log unavailable